sensor_id;sensor_type;location;lat;lon;timestamp;pressure;altitude;pressure_sealevel;temperature;humidity
77086;BME280;66014;53.134;18.006;2023-09-07T00:01:31;102057.55;;;19.79;65.26
77086;BME280;66014;53.134;18.006;2023-09-07T00:04:00;102059.83;;;19.78;65.33
77086;BME280;66014;53.134;18.006;2023-09-07T00:06:26;102064.40;;;19.77;65.56
77086;BME280;66014;53.134;18.006;2023-09-07T00:08:52;102061.77;;;19.75;65.70
77086;BME280;66014;53.134;18.006;2023-09-07T00:11:18;102060.02;;;19.74;65.80
77086;BME280;66014;53.134;18.006;2023-09-07T00:13:44;102062.64;;;19.72;65.96
77086;BME280;66014;53.134;18.006;2023-09-07T00:16:09;102064.19;;;19.69;66.04
77086;BME280;66014;53.134;18.006;2023-09-07T00:18:36;102062.63;;;19.69;66.10
77086;BME280;66014;53.134;18.006;2023-09-07T00:21:02;102060.88;;;19.67;66.24
77086;BME280;66014;53.134;18.006;2023-09-07T00:23:29;102061.73;;;19.65;66.34
77086;BME280;66014;53.134;18.006;2023-09-07T00:25:55;102063.34;;;19.62;66.36
77086;BME280;66014;53.134;18.006;2023-09-07T00:28:22;102066.45;;;19.59;66.63
77086;BME280;66014;53.134;18.006;2023-09-07T00:30:48;102064.77;;;19.57;66.59
77086;BME280;66014;53.134;18.006;2023-09-07T00:33:14;102067.38;;;19.55;66.72
77086;BME280;66014;53.134;18.006;2023-09-07T00:35:39;102063.13;;;19.52;66.80
77086;BME280;66014;53.134;18.006;2023-09-07T00:38:05;102062.55;;;19.48;67.02
77086;BME280;66014;53.134;18.006;2023-09-07T00:40:32;102059.33;;;19.46;67.10
77086;BME280;66014;53.134;18.006;2023-09-07T00:42:58;102058.27;;;19.42;67.28
77086;BME280;66014;53.134;18.006;2023-09-07T00:45:24;102057.01;;;19.40;67.43
77086;BME280;66014;53.134;18.006;2023-09-07T00:47:50;102057.70;;;19.36;67.46
77086;BME280;66014;53.134;18.006;2023-09-07T00:50:16;102055.97;;;19.33;67.59
77086;BME280;66014;53.134;18.006;2023-09-07T00:52:42;102051.95;;;19.31;67.78
77086;BME280;66014;53.134;18.006;2023-09-07T00:55:09;102054.91;;;19.29;67.84
77086;BME280;66014;53.134;18.006;2023-09-07T00:57:36;102059.80;;;19.27;67.88
77086;BME280;66014;53.134;18.006;2023-09-07T01:00:04;102061.00;;;19.25;67.88
77086;BME280;66014;53.134;18.006;2023-09-07T01:02:31;102060.63;;;19.22;68.04
77086;BME280;66014;53.134;18.006;2023-09-07T01:04:57;102062.08;;;19.20;68.30
77086;BME280;66014;53.134;18.006;2023-09-07T01:07:26;102062.61;;;19.19;68.24
77086;BME280;66014;53.134;18.006;2023-09-07T01:09:57;102062.25;;;19.18;68.27
77086;BME280;66014;53.134;18.006;2023-09-07T01:12:25;102058.80;;;19.14;68.59
77086;BME280;66014;53.134;18.006;2023-09-07T01:14:50;102064.84;;;19.12;68.69
77086;BME280;66014;53.134;18.006;2023-09-07T01:17:16;102064.71;;;19.10;68.81
77086;BME280;66014;53.134;18.006;2023-09-07T01:19:44;102066.70;;;19.07;68.83
77086;BME280;66014;53.134;18.006;2023-09-07T01:22:11;102067.58;;;19.05;68.93
77086;BME280;66014;53.134;18.006;2023-09-07T01:24:38;102065.04;;;19.03;69.06
77086;BME280;66014;53.134;18.006;2023-09-07T01:27:05;102065.64;;;19.02;69.07
77086;BME280;66014;53.134;18.006;2023-09-07T01:29:31;102063.05;;;18.99;69.23
77086;BME280;66014;53.134;18.006;2023-09-07T01:31:57;102059.76;;;18.97;69.22
77086;BME280;66014;53.134;18.006;2023-09-07T01:34:24;102063.45;;;18.95;69.46
77086;BME280;66014;53.134;18.006;2023-09-07T01:36:50;102064.17;;;18.92;69.49
77086;BME280;66014;53.134;18.006;2023-09-07T01:39:17;102066.98;;;18.90;69.59
77086;BME280;66014;53.134;18.006;2023-09-07T01:41:43;102070.21;;;18.89;69.80
77086;BME280;66014;53.134;18.006;2023-09-07T01:44:09;102069.08;;;18.88;69.88
77086;BME280;66014;53.134;18.006;2023-09-07T01:46:35;102068.13;;;18.88;69.85
77086;BME280;66014;53.134;18.006;2023-09-07T01:49:04;102070.69;;;18.88;69.83
77086;BME280;66014;53.134;18.006;2023-09-07T01:51:29;102071.17;;;18.87;70.09
77086;BME280;66014;53.134;18.006;2023-09-07T01:53:55;102067.76;;;18.87;69.99
77086;BME280;66014;53.134;18.006;2023-09-07T01:56:22;102063.05;;;18.87;70.12
77086;BME280;66014;53.134;18.006;2023-09-07T01:58:48;102059.94;;;18.86;70.14
77086;BME280;66014;53.134;18.006;2023-09-07T02:03:46;102065.33;;;18.84;70.23
77086;BME280;66014;53.134;18.006;2023-09-07T02:06:12;102063.86;;;18.84;70.33
77086;BME280;66014;53.134;18.006;2023-09-07T02:08:39;102065.78;;;18.84;70.34
77086;BME280;66014;53.134;18.006;2023-09-07T02:11:09;102066.66;;;18.84;70.34
77086;BME280;66014;53.134;18.006;2023-09-07T02:13:35;102060.66;;;18.82;70.49
77086;BME280;66014;53.134;18.006;2023-09-07T02:16:04;102059.27;;;18.79;70.59
77086;BME280;66014;53.134;18.006;2023-09-07T02:18:33;102063.48;;;18.77;70.56
77086;BME280;66014;53.134;18.006;2023-09-07T02:21:05;102061.09;;;18.73;70.67
77086;BME280;66014;53.134;18.006;2023-09-07T02:23:32;102062.54;;;18.72;70.83
77086;BME280;66014;53.134;18.006;2023-09-07T02:25:59;102063.23;;;18.71;70.95
77086;BME280;66014;53.134;18.006;2023-09-07T02:28:25;102061.20;;;18.70;70.89
77086;BME280;66014;53.134;18.006;2023-09-07T02:30:52;102057.85;;;18.68;71.06
77086;BME280;66014;53.134;18.006;2023-09-07T02:33:18;102058.92;;;18.68;71.01
77086;BME280;66014;53.134;18.006;2023-09-07T02:35:44;102060.13;;;18.65;71.11
77086;BME280;66014;53.134;18.006;2023-09-07T02:38:10;102061.48;;;18.65;71.02
77086;BME280;66014;53.134;18.006;2023-09-07T02:40:43;102063.77;;;18.65;71.22
77086;BME280;66014;53.134;18.006;2023-09-07T02:43:10;102067.23;;;18.65;71.23
77086;BME280;66014;53.134;18.006;2023-09-07T02:45:36;102067.95;;;18.64;71.33
77086;BME280;66014;53.134;18.006;2023-09-07T02:48:02;102069.67;;;18.63;71.48
77086;BME280;66014;53.134;18.006;2023-09-07T02:50:31;102072.71;;;18.60;71.55
77086;BME280;66014;53.134;18.006;2023-09-07T02:52:57;102069.05;;;18.58;71.63
77086;BME280;66014;53.134;18.006;2023-09-07T02:55:23;102071.13;;;18.56;71.59
77086;BME280;66014;53.134;18.006;2023-09-07T02:57:49;102071.06;;;18.55;71.69
77086;BME280;66014;53.134;18.006;2023-09-07T03:00:15;102070.65;;;18.55;71.75
77086;BME280;66014;53.134;18.006;2023-09-07T03:02:44;102066.59;;;18.56;71.80
77086;BME280;66014;53.134;18.006;2023-09-07T03:05:10;102070.71;;;18.57;71.94
77086;BME280;66014;53.134;18.006;2023-09-07T03:07:35;102073.45;;;18.58;71.89
77086;BME280;66014;53.134;18.006;2023-09-07T03:10:01;102069.60;;;18.59;71.76
77086;BME280;66014;53.134;18.006;2023-09-07T03:12:27;102072.52;;;18.60;71.90
77086;BME280;66014;53.134;18.006;2023-09-07T03:14:54;102070.69;;;18.60;71.99
77086;BME280;66014;53.134;18.006;2023-09-07T03:17:19;102072.27;;;18.59;71.99
77086;BME280;66014;53.134;18.006;2023-09-07T03:19:48;102073.84;;;18.59;71.94
77086;BME280;66014;53.134;18.006;2023-09-07T03:22:14;102067.51;;;18.61;72.00
77086;BME280;66014;53.134;18.006;2023-09-07T03:24:40;102068.35;;;18.62;71.94
77086;BME280;66014;53.134;18.006;2023-09-07T03:27:06;102067.90;;;18.64;72.00
77086;BME280;66014;53.134;18.006;2023-09-07T03:29:32;102069.63;;;18.66;71.80
77086;BME280;66014;53.134;18.006;2023-09-07T03:31:59;102068.80;;;18.68;71.85
77086;BME280;66014;53.134;18.006;2023-09-07T03:34:26;102074.11;;;18.70;72.14
77086;BME280;66014;53.134;18.006;2023-09-07T03:36:52;102081.37;;;18.71;72.11
77086;BME280;66014;53.134;18.006;2023-09-07T03:39:18;102078.47;;;18.72;71.97
77086;BME280;66014;53.134;18.006;2023-09-07T03:41:44;102075.48;;;18.73;71.99
77086;BME280;66014;53.134;18.006;2023-09-07T03:44:11;102076.11;;;18.74;71.89
77086;BME280;66014;53.134;18.006;2023-09-07T03:46:39;102078.85;;;18.74;72.01
77086;BME280;66014;53.134;18.006;2023-09-07T03:49:05;102083.84;;;18.73;72.04
77086;BME280;66014;53.134;18.006;2023-09-07T03:51:31;102084.61;;;18.72;72.33
77086;BME280;66014;53.134;18.006;2023-09-07T03:53:57;102083.80;;;18.70;72.25
77086;BME280;66014;53.134;18.006;2023-09-07T03:56:25;102083.62;;;18.67;72.18
77086;BME280;66014;53.134;18.006;2023-09-07T03:58:51;102080.63;;;18.66;72.20
77086;BME280;66014;53.134;18.006;2023-09-07T04:01:17;102083.39;;;18.65;72.23
77086;BME280;66014;53.134;18.006;2023-09-07T04:03:43;102084.00;;;18.64;72.36
77086;BME280;66014;53.134;18.006;2023-09-07T04:06:09;102082.69;;;18.65;72.39
77086;BME280;66014;53.134;18.006;2023-09-07T04:08:35;102085.16;;;18.64;72.35
77086;BME280;66014;53.134;18.006;2023-09-07T04:11:05;102085.11;;;18.63;72.32
77086;BME280;66014;53.134;18.006;2023-09-07T04:13:32;102084.93;;;18.61;72.49
77086;BME280;66014;53.134;18.006;2023-09-07T04:15:58;102090.73;;;18.63;72.40
77086;BME280;66014;53.134;18.006;2023-09-07T04:18:23;102087.57;;;18.63;72.48
77086;BME280;66014;53.134;18.006;2023-09-07T04:20:49;102092.05;;;18.63;72.62
77086;BME280;66014;53.134;18.006;2023-09-07T04:23:15;102090.80;;;18.63;72.49
77086;BME280;66014;53.134;18.006;2023-09-07T04:25:41;102091.55;;;18.63;72.79
77086;BME280;66014;53.134;18.006;2023-09-07T04:28:08;102097.58;;;18.64;72.68
77086;BME280;66014;53.134;18.006;2023-09-07T04:30:41;102100.34;;;18.63;72.60
77086;BME280;66014;53.134;18.006;2023-09-07T04:33:09;102100.43;;;18.63;72.59
77086;BME280;66014;53.134;18.006;2023-09-07T04:35:35;102099.83;;;18.62;72.72
77086;BME280;66014;53.134;18.006;2023-09-07T04:38:00;102099.52;;;18.58;72.62
77086;BME280;66014;53.134;18.006;2023-09-07T04:40:26;102104.19;;;18.56;72.75
77086;BME280;66014;53.134;18.006;2023-09-07T04:42:52;102101.80;;;18.53;72.78
77086;BME280;66014;53.134;18.006;2023-09-07T04:45:21;102106.52;;;18.53;72.87
77086;BME280;66014;53.134;18.006;2023-09-07T04:47:47;102107.14;;;18.54;72.87
77086;BME280;66014;53.134;18.006;2023-09-07T04:50:13;102109.08;;;18.56;73.05
77086;BME280;66014;53.134;18.006;2023-09-07T04:52:39;102115.27;;;18.56;72.92
77086;BME280;66014;53.134;18.006;2023-09-07T04:55:07;102116.61;;;18.58;72.95
77086;BME280;66014;53.134;18.006;2023-09-07T04:57:36;102114.67;;;18.60;72.96
77086;BME280;66014;53.134;18.006;2023-09-07T05:00:02;102118.67;;;18.61;73.09
77086;BME280;66014;53.134;18.006;2023-09-07T05:02:29;102118.52;;;18.62;72.90
77086;BME280;66014;53.134;18.006;2023-09-07T05:04:55;102122.91;;;18.62;72.94
77086;BME280;66014;53.134;18.006;2023-09-07T05:07:21;102123.10;;;18.65;73.05
77086;BME280;66014;53.134;18.006;2023-09-07T05:09:47;102124.76;;;18.69;72.90
77086;BME280;66014;53.134;18.006;2023-09-07T05:12:14;102122.12;;;18.71;72.94
77086;BME280;66014;53.134;18.006;2023-09-07T05:14:44;102122.34;;;18.74;73.19
77086;BME280;66014;53.134;18.006;2023-09-07T05:17:09;102122.56;;;18.75;73.12
77086;BME280;66014;53.134;18.006;2023-09-07T05:19:35;102121.38;;;18.77;73.18
77086;BME280;66014;53.134;18.006;2023-09-07T05:22:01;102123.25;;;18.78;73.09
77086;BME280;66014;53.134;18.006;2023-09-07T05:24:27;102126.52;;;18.79;72.98
77086;BME280;66014;53.134;18.006;2023-09-07T05:26:53;102123.83;;;18.81;73.12
77086;BME280;66014;53.134;18.006;2023-09-07T05:29:19;102126.90;;;18.80;73.08
77086;BME280;66014;53.134;18.006;2023-09-07T05:31:47;102127.83;;;18.83;73.22
77086;BME280;66014;53.134;18.006;2023-09-07T05:34:13;102126.08;;;18.87;73.11
77086;BME280;66014;53.134;18.006;2023-09-07T05:36:38;102131.33;;;18.90;73.13
77086;BME280;66014;53.134;18.006;2023-09-07T05:39:04;102132.67;;;18.93;73.18
77086;BME280;66014;53.134;18.006;2023-09-07T05:41:30;102130.36;;;18.94;73.17
77086;BME280;66014;53.134;18.006;2023-09-07T05:43:56;102133.20;;;18.95;72.98
77086;BME280;66014;53.134;18.006;2023-09-07T05:46:22;102132.91;;;18.98;73.09
77086;BME280;66014;53.134;18.006;2023-09-07T05:48:48;102134.69;;;19.00;73.10
77086;BME280;66014;53.134;18.006;2023-09-07T05:51:13;102135.71;;;19.04;73.01
77086;BME280;66014;53.134;18.006;2023-09-07T05:53:39;102139.27;;;19.08;73.10
77086;BME280;66014;53.134;18.006;2023-09-07T05:56:05;102138.45;;;19.15;73.07
77086;BME280;66014;53.134;18.006;2023-09-07T05:58:31;102139.92;;;19.21;72.90
77086;BME280;66014;53.134;18.006;2023-09-07T06:00:56;102139.73;;;19.28;72.80
77086;BME280;66014;53.134;18.006;2023-09-07T06:03:22;102138.77;;;19.34;72.61
77086;BME280;66014;53.134;18.006;2023-09-07T06:05:48;102140.98;;;19.38;72.48
77086;BME280;66014;53.134;18.006;2023-09-07T06:08:14;102148.64;;;19.43;72.46
77086;BME280;66014;53.134;18.006;2023-09-07T06:10:41;102152.20;;;19.47;72.45
77086;BME280;66014;53.134;18.006;2023-09-07T06:13:07;102149.25;;;19.49;72.32
77086;BME280;66014;53.134;18.006;2023-09-07T06:15:33;102154.35;;;19.54;72.20
77086;BME280;66014;53.134;18.006;2023-09-07T06:17:59;102157.61;;;19.58;72.03
77086;BME280;66014;53.134;18.006;2023-09-07T06:20:25;102160.89;;;19.63;72.14
77086;BME280;66014;53.134;18.006;2023-09-07T06:22:51;102157.27;;;19.67;71.80
77086;BME280;66014;53.134;18.006;2023-09-07T06:25:17;102160.81;;;19.69;71.65
77086;BME280;66014;53.134;18.006;2023-09-07T06:27:43;102163.64;;;19.71;71.60
77086;BME280;66014;53.134;18.006;2023-09-07T06:30:09;102163.98;;;19.73;71.61
77086;BME280;66014;53.134;18.006;2023-09-07T06:32:36;102167.37;;;19.76;71.50
77086;BME280;66014;53.134;18.006;2023-09-07T06:38:47;102167.32;;;19.94;71.03
77086;BME280;66014;53.134;18.006;2023-09-07T06:41:13;102165.46;;;20.06;70.89
77086;BME280;66014;53.134;18.006;2023-09-07T06:43:40;102172.67;;;20.19;70.62
77086;BME280;66014;53.134;18.006;2023-09-07T06:46:07;102175.38;;;20.30;70.39
77086;BME280;66014;53.134;18.006;2023-09-07T06:48:35;102180.98;;;20.39;70.07
77086;BME280;66014;53.134;18.006;2023-09-07T06:51:02;102183.80;;;20.49;69.99
77086;BME280;66014;53.134;18.006;2023-09-07T06:57:09;102188.02;;;20.86;69.28
77086;BME280;66014;53.134;18.006;2023-09-07T06:59:35;102191.15;;;20.86;68.93
77086;BME280;66014;53.134;18.006;2023-09-07T07:05:29;102192.26;;;20.92;68.86
77086;BME280;66014;53.134;18.006;2023-09-07T07:07:55;102192.98;;;21.00;68.59
77086;BME280;66014;53.134;18.006;2023-09-07T07:10:24;102186.94;;;21.09;68.43
77086;BME280;66014;53.134;18.006;2023-09-07T07:12:50;102190.73;;;21.26;67.99
77086;BME280;66014;53.134;18.006;2023-09-07T07:15:17;102192.52;;;21.47;67.67
77086;BME280;66014;53.134;18.006;2023-09-07T07:17:43;102190.13;;;21.93;67.01
77086;BME280;66014;53.134;18.006;2023-09-07T07:20:09;102192.51;;;22.45;66.02
77086;BME280;66014;53.134;18.006;2023-09-07T07:22:35;102194.14;;;22.82;65.23
77086;BME280;66014;53.134;18.006;2023-09-07T07:25:04;102195.37;;;23.13;64.58
77086;BME280;66014;53.134;18.006;2023-09-07T07:27:31;102193.25;;;23.49;63.56
77086;BME280;66014;53.134;18.006;2023-09-07T07:29:57;102197.04;;;23.94;62.56
77086;BME280;66014;53.134;18.006;2023-09-07T07:32:25;102201.89;;;24.22;61.63
77086;BME280;66014;53.134;18.006;2023-09-07T07:34:50;102206.66;;;24.63;60.94
77086;BME280;66014;53.134;18.006;2023-09-07T07:37:17;102207.39;;;25.14;59.57
77086;BME280;66014;53.134;18.006;2023-09-07T07:40:08;102207.98;;;25.74;58.43
77086;BME280;66014;53.134;18.006;2023-09-07T07:42:57;102213.70;;;26.68;55.97
77086;BME280;66014;53.134;18.006;2023-09-07T07:45:23;102214.19;;;27.10;55.24
77086;BME280;66014;53.134;18.006;2023-09-07T07:47:49;102212.02;;;28.40;53.73
77086;BME280;66014;53.134;18.006;2023-09-07T07:50:16;102214.05;;;30.12;50.82
77086;BME280;66014;53.134;18.006;2023-09-07T07:52:42;102219.61;;;31.28;48.84
77086;BME280;66014;53.134;18.006;2023-09-07T07:55:11;102214.68;;;32.34;47.06
77086;BME280;66014;53.134;18.006;2023-09-07T07:57:36;102210.55;;;33.57;45.29
77086;BME280;66014;53.134;18.006;2023-09-07T08:00:04;102215.24;;;34.88;42.90
77086;BME280;66014;53.134;18.006;2023-09-07T08:02:30;102213.15;;;35.98;40.18
77086;BME280;66014;53.134;18.006;2023-09-07T08:04:57;102211.35;;;36.83;37.40
77086;BME280;66014;53.134;18.006;2023-09-07T08:11:10;102207.74;;;37.37;33.48
77086;BME280;66014;53.134;18.006;2023-09-07T08:13:39;102204.55;;;37.70;32.83
77086;BME280;66014;53.134;18.006;2023-09-07T08:16:06;102206.38;;;38.14;31.76
77086;BME280;66014;53.134;18.006;2023-09-07T08:18:35;102208.47;;;38.49;30.89
77086;BME280;66014;53.134;18.006;2023-09-07T08:21:03;102207.34;;;38.84;30.04
77086;BME280;66014;53.134;18.006;2023-09-07T08:23:29;102211.13;;;39.20;29.14
77086;BME280;66014;53.134;18.006;2023-09-07T08:25:55;102210.59;;;39.57;28.77
77086;BME280;66014;53.134;18.006;2023-09-07T08:28:20;102215.90;;;39.99;27.97
77086;BME280;66014;53.134;18.006;2023-09-07T08:30:51;102210.17;;;40.49;27.46
77086;BME280;66014;53.134;18.006;2023-09-07T08:33:21;102212.19;;;41.04;26.83
77086;BME280;66014;53.134;18.006;2023-09-07T08:36:05;102209.32;;;41.48;26.01
77086;BME280;66014;53.134;18.006;2023-09-07T08:38:33;102206.81;;;41.82;25.64
77086;BME280;66014;53.134;18.006;2023-09-07T08:41:01;102209.34;;;42.20;24.98
77086;BME280;66014;53.134;18.006;2023-09-07T08:43:39;102207.46;;;42.37;24.20
77086;BME280;66014;53.134;18.006;2023-09-07T08:50:19;102198.95;;;43.11;23.65
77086;BME280;66014;53.134;18.006;2023-09-07T08:52:51;102202.17;;;43.47;23.34
77086;BME280;66014;53.134;18.006;2023-09-07T08:55:43;102202.25;;;43.69;22.55
77086;BME280;66014;53.134;18.006;2023-09-07T09:02:09;102199.55;;;43.86;22.09
77086;BME280;66014;53.134;18.006;2023-09-07T09:04:37;102198.27;;;43.61;21.86
77086;BME280;66014;53.134;18.006;2023-09-07T09:07:37;102197.36;;;43.47;21.81
77086;BME280;66014;53.134;18.006;2023-09-07T09:10:09;102187.99;;;43.47;22.23
77086;BME280;66014;53.134;18.006;2023-09-07T09:12:35;102183.91;;;43.69;21.72
77086;BME280;66014;53.134;18.006;2023-09-07T09:15:10;102179.20;;;43.83;21.42
77086;BME280;66014;53.134;18.006;2023-09-07T09:17:36;102183.50;;;43.91;21.07
77086;BME280;66014;53.134;18.006;2023-09-07T09:20:02;102184.79;;;44.06;21.32
77086;BME280;66014;53.134;18.006;2023-09-07T09:22:33;102182.61;;;44.18;21.00
77086;BME280;66014;53.134;18.006;2023-09-07T09:25:05;102177.48;;;44.33;20.95
77086;BME280;66014;53.134;18.006;2023-09-07T09:27:33;102176.73;;;44.42;20.77
77086;BME280;66014;53.134;18.006;2023-09-07T09:30:04;102174.08;;;44.46;20.36
77086;BME280;66014;53.134;18.006;2023-09-07T09:40:59;102168.64;;;44.50;19.86
77086;BME280;66014;53.134;18.006;2023-09-07T09:43:26;102164.83;;;44.34;20.14
77086;BME280;66014;53.134;18.006;2023-09-07T09:45:53;102162.80;;;44.22;19.80
77086;BME280;66014;53.134;18.006;2023-09-07T09:48:21;102162.06;;;44.05;19.76
77086;BME280;66014;53.134;18.006;2023-09-07T09:50:49;102164.48;;;43.81;20.19
77086;BME280;66014;53.134;18.006;2023-09-07T09:53:18;102163.56;;;43.64;20.17
77086;BME280;66014;53.134;18.006;2023-09-07T09:55:49;102156.48;;;43.41;20.41
77086;BME280;66014;53.134;18.006;2023-09-07T09:58:16;102154.85;;;43.31;20.44
77086;BME280;66014;53.134;18.006;2023-09-07T10:00:48;102155.30;;;43.14;20.59
77086;BME280;66014;53.134;18.006;2023-09-07T10:03:45;102150.73;;;42.99;20.75
77086;BME280;66014;53.134;18.006;2023-09-07T10:06:23;102147.17;;;42.81;20.67
77086;BME280;66014;53.134;18.006;2023-09-07T10:09:11;102147.80;;;42.67;20.45
77086;BME280;66014;53.134;18.006;2023-09-07T10:11:50;102146.30;;;42.41;20.72
77086;BME280;66014;53.134;18.006;2023-09-07T10:14:16;102149.66;;;42.27;21.16
77086;BME280;66014;53.134;18.006;2023-09-07T10:16:50;102149.95;;;42.32;21.13
77086;BME280;66014;53.134;18.006;2023-09-07T10:19:23;102148.02;;;42.31;21.02
77086;BME280;66014;53.134;18.006;2023-09-07T10:21:50;102145.63;;;42.24;20.97
77086;BME280;66014;53.134;18.006;2023-09-07T10:24:30;102146.77;;;42.19;21.11
77086;BME280;66014;53.134;18.006;2023-09-07T10:27:01;102145.75;;;42.13;21.42
77086;BME280;66014;53.134;18.006;2023-09-07T10:29:28;102143.98;;;42.17;21.64
77086;BME280;66014;53.134;18.006;2023-09-07T10:31:56;102144.05;;;42.29;21.40
77086;BME280;66014;53.134;18.006;2023-09-07T10:34:22;102143.14;;;42.39;21.54
77086;BME280;66014;53.134;18.006;2023-09-07T10:36:59;102137.25;;;42.46;21.01
77086;BME280;66014;53.134;18.006;2023-09-07T10:39:30;102135.12;;;42.56;21.06
77086;BME280;66014;53.134;18.006;2023-09-07T10:41:59;102134.69;;;42.59;20.89
77086;BME280;66014;53.134;18.006;2023-09-07T10:44:26;102133.39;;;42.67;20.99
77086;BME280;66014;53.134;18.006;2023-09-07T10:46:54;102129.22;;;42.69;20.85
77086;BME280;66014;53.134;18.006;2023-09-07T10:49:21;102130.40;;;42.74;20.70
77086;BME280;66014;53.134;18.006;2023-09-07T10:51:48;102133.84;;;42.83;21.09
77086;BME280;66014;53.134;18.006;2023-09-07T10:56:43;102133.89;;;43.13;20.96
77086;BME280;66014;53.134;18.006;2023-09-07T10:59:09;102130.15;;;43.33;20.35
77086;BME280;66014;53.134;18.006;2023-09-07T11:01:35;102130.06;;;43.41;20.24
77086;BME280;66014;53.134;18.006;2023-09-07T11:04:10;102129.38;;;43.37;20.00
77086;BME280;66014;53.134;18.006;2023-09-07T11:06:40;102126.60;;;43.26;19.76
77086;BME280;66014;53.134;18.006;2023-09-07T11:09:09;102122.09;;;43.19;19.78
77086;BME280;66014;53.134;18.006;2023-09-07T11:11:36;102123.36;;;43.03;19.91
77086;BME280;66014;53.134;18.006;2023-09-07T11:14:05;102122.02;;;42.56;20.77
77086;BME280;66014;53.134;18.006;2023-09-07T11:16:33;102118.80;;;41.98;20.84
77086;BME280;66014;53.134;18.006;2023-09-07T11:19:06;102114.84;;;41.33;21.14
77086;BME280;66014;53.134;18.006;2023-09-07T11:21:34;102117.53;;;40.63;21.71
77086;BME280;66014;53.134;18.006;2023-09-07T11:24:02;102113.34;;;40.02;22.58
77086;BME280;66014;53.134;18.006;2023-09-07T11:26:48;102110.28;;;39.49;23.18
77086;BME280;66014;53.134;18.006;2023-09-07T11:29:17;102105.85;;;39.01;23.20
77086;BME280;66014;53.134;18.006;2023-09-07T11:31:46;102101.43;;;38.61;24.29
77086;BME280;66014;53.134;18.006;2023-09-07T11:34:15;102099.02;;;38.26;25.04
77086;BME280;66014;53.134;18.006;2023-09-07T11:44:34;102094.40;;;36.35;25.76
77086;BME280;66014;53.134;18.006;2023-09-07T11:47:04;102091.29;;;35.95;26.48
77086;BME280;66014;53.134;18.006;2023-09-07T11:49:30;102093.15;;;35.71;26.67
77086;BME280;66014;53.134;18.006;2023-09-07T11:51:57;102093.23;;;35.45;26.64
77086;BME280;66014;53.134;18.006;2023-09-07T11:54:23;102094.67;;;35.17;27.20
77086;BME280;66014;53.134;18.006;2023-09-07T11:56:49;102093.29;;;35.00;27.36
77086;BME280;66014;53.134;18.006;2023-09-07T11:59:15;102096.30;;;34.81;27.66
77086;BME280;66014;53.134;18.006;2023-09-07T12:01:49;102096.56;;;34.52;28.05
77086;BME280;66014;53.134;18.006;2023-09-07T12:04:35;102094.73;;;34.27;28.80
77086;BME280;66014;53.134;18.006;2023-09-07T12:07:04;102090.66;;;33.98;29.27
77086;BME280;66014;53.134;18.006;2023-09-07T12:09:31;102093.68;;;33.65;29.62
77086;BME280;66014;53.134;18.006;2023-09-07T12:12:00;102092.67;;;33.49;29.79
77086;BME280;66014;53.134;18.006;2023-09-07T12:14:26;102089.75;;;33.45;29.89
77086;BME280;66014;53.134;18.006;2023-09-07T12:16:51;102090.14;;;33.36;29.81
77086;BME280;66014;53.134;18.006;2023-09-07T12:19:18;102094.09;;;33.33;29.93
77086;BME280;66014;53.134;18.006;2023-09-07T12:21:43;102087.73;;;33.28;29.94
77086;BME280;66014;53.134;18.006;2023-09-07T12:24:09;102085.04;;;33.21;30.25
77086;BME280;66014;53.134;18.006;2023-09-07T12:26:35;102079.70;;;33.19;30.21
77086;BME280;66014;53.134;18.006;2023-09-07T12:29:01;102078.54;;;33.19;30.80
77086;BME280;66014;53.134;18.006;2023-09-07T12:31:27;102076.70;;;33.21;30.52
77086;BME280;66014;53.134;18.006;2023-09-07T12:33:52;102074.32;;;33.21;30.77
77086;BME280;66014;53.134;18.006;2023-09-07T12:36:19;102066.38;;;33.25;31.05
77086;BME280;66014;53.134;18.006;2023-09-07T12:38:47;102063.08;;;33.32;31.27
77086;BME280;66014;53.134;18.006;2023-09-07T12:41:14;102063.00;;;33.38;30.70
77086;BME280;66014;53.134;18.006;2023-09-07T12:43:41;102063.18;;;33.41;30.87
77086;BME280;66014;53.134;18.006;2023-09-07T12:46:11;102058.55;;;33.45;31.08
77086;BME280;66014;53.134;18.006;2023-09-07T12:48:38;102055.71;;;33.50;31.29
77086;BME280;66014;53.134;18.006;2023-09-07T12:51:05;102056.51;;;33.54;31.30
77086;BME280;66014;53.134;18.006;2023-09-07T12:53:31;102054.85;;;33.54;30.72
77086;BME280;66014;53.134;18.006;2023-09-07T12:55:57;102054.27;;;33.32;30.30
77086;BME280;66014;53.134;18.006;2023-09-07T12:58:23;102053.43;;;33.09;30.77
77086;BME280;66014;53.134;18.006;2023-09-07T13:00:49;102050.73;;;33.03;30.70
77086;BME280;66014;53.134;18.006;2023-09-07T13:03:17;102045.35;;;33.01;30.58
77086;BME280;66014;53.134;18.006;2023-09-07T13:05:43;102040.46;;;32.95;30.75
77086;BME280;66014;53.134;18.006;2023-09-07T13:08:12;102036.52;;;32.97;31.00
77086;BME280;66014;53.134;18.006;2023-09-07T13:10:38;102033.14;;;33.02;31.30
77086;BME280;66014;53.134;18.006;2023-09-07T13:16:51;102032.56;;;33.05;31.43
77086;BME280;66014;53.134;18.006;2023-09-07T13:19:45;102026.50;;;33.04;31.32
77086;BME280;66014;53.134;18.006;2023-09-07T13:22:21;102023.38;;;33.02;31.56
77086;BME280;66014;53.134;18.006;2023-09-07T13:25:17;102023.39;;;32.96;31.53
77086;BME280;66014;53.134;18.006;2023-09-07T13:27:46;102021.94;;;32.89;31.58
77086;BME280;66014;53.134;18.006;2023-09-07T13:30:15;102026.52;;;32.81;31.93
77086;BME280;66014;53.134;18.006;2023-09-07T13:33:15;102020.46;;;32.68;32.25